createdAt,value
2018-01-07T00:00:09.885Z,1004.33
2018-01-07T00:01:09.794Z,1004.33
2018-01-07T00:02:09.808Z,1004.3
2018-01-07T00:03:09.822Z,1004.33
2018-01-07T00:04:09.834Z,1004.3
2018-01-07T00:05:09.850Z,1004.34
2018-01-07T00:06:09.861Z,1004.37
2018-01-07T00:07:09.876Z,1004.32
2018-01-07T00:08:09.888Z,1004.37
2018-01-07T00:09:09.901Z,1004.37
2018-01-07T00:10:09.913Z,1004.33
2018-01-07T00:11:09.926Z,1004.35
2018-01-07T00:12:09.941Z,1004.4
2018-01-07T00:13:09.954Z,1004.41
2018-01-07T00:14:09.967Z,1004.39
2018-01-07T00:15:09.980Z,1004.45
2018-01-07T00:16:09.993Z,1004.47
2018-01-07T00:17:10.007Z,1004.47
2018-01-07T00:18:10.020Z,1004.48
2018-01-07T00:19:10.033Z,1004.53
2018-01-07T00:20:10.045Z,1004.6
2018-01-07T00:21:10.059Z,1004.6
2018-01-07T00:22:10.072Z,1004.61
2018-01-07T00:23:10.085Z,1004.64
2018-01-07T00:24:10.098Z,1004.68
2018-01-07T00:25:10.111Z,1004.69
2018-01-07T00:26:10.127Z,1004.75
2018-01-07T00:27:10.138Z,1004.75
2018-01-07T00:28:10.151Z,1004.74
2018-01-07T00:29:10.163Z,1004.78
2018-01-07T00:30:10.177Z,1004.76
2018-01-07T00:31:10.199Z,1004.79
2018-01-07T00:32:10.206Z,1004.84
2018-01-07T00:33:10.221Z,1004.82
2018-01-07T00:34:10.229Z,1004.91
2018-01-07T00:35:10.243Z,1004.91
2018-01-07T00:36:10.254Z,1004.95
2018-01-07T00:37:10.268Z,1004.98
2018-01-07T00:38:10.283Z,1004.99
2018-01-07T00:39:10.355Z,1005.01
2018-01-07T00:40:10.316Z,1005.01
2018-01-07T00:41:10.323Z,1005.06
2018-01-07T00:42:10.334Z,1005.08
2018-01-07T00:43:10.346Z,1005.08
2018-01-07T00:44:10.361Z,1005.1
2018-01-07T00:45:10.372Z,1005.14
2018-01-07T00:46:10.500Z,1005.24
2018-01-07T00:47:10.399Z,1005.23
2018-01-07T00:48:10.509Z,1005.27
2018-01-07T00:49:10.426Z,1005.31
2018-01-07T00:50:10.438Z,1005.3
2018-01-07T00:51:10.451Z,1005.33
2018-01-07T00:52:10.464Z,1005.34
2018-01-07T00:53:10.485Z,1005.33
2018-01-07T00:54:10.490Z,1005.32
2018-01-07T00:55:10.504Z,1005.36
2018-01-07T00:56:10.517Z,1005.34
2018-01-07T00:57:10.529Z,1005.35
2018-01-07T00:58:10.542Z,1005.35
2018-01-07T00:59:10.556Z,1005.37
2018-01-07T01:00:10.569Z,1005.39
2018-01-07T01:01:10.581Z,1005.37
2018-01-07T01:02:10.596Z,1005.35
2018-01-07T01:03:10.608Z,1005.37
2018-01-07T01:04:10.623Z,1005.41
2018-01-07T01:05:10.633Z,1005.37
2018-01-07T01:06:10.647Z,1005.39
2018-01-07T01:07:10.661Z,1005.41
2018-01-07T01:08:10.673Z,1005.38
2018-01-07T01:09:10.686Z,1005.44
2018-01-07T01:10:10.701Z,1005.48
2018-01-07T01:11:10.717Z,1005.54
2018-01-07T01:12:10.724Z,1005.52
2018-01-07T01:13:10.737Z,1005.57
2018-01-07T01:14:10.753Z,1005.59
2018-01-07T01:15:10.766Z,1005.65
2018-01-07T01:16:10.776Z,1005.68
2018-01-07T01:17:10.789Z,1005.65
2018-01-07T01:18:10.802Z,1005.71
2018-01-07T01:19:10.818Z,1005.7
2018-01-07T01:20:10.828Z,1005.72
2018-01-07T01:21:10.842Z,1005.74
2018-01-07T01:22:10.855Z,1005.78
2018-01-07T01:23:10.866Z,1005.79
2018-01-07T01:24:10.880Z,1005.81
2018-01-07T01:25:10.897Z,1005.82
2018-01-07T01:26:10.907Z,1005.83
2018-01-07T01:27:10.919Z,1005.86
2018-01-07T01:28:10.934Z,1005.87
2018-01-07T01:29:10.945Z,1005.85
2018-01-07T01:30:10.958Z,1005.87
2018-01-07T01:31:10.973Z,1005.87
2018-01-07T01:32:10.984Z,1005.87
2018-01-07T01:33:10.998Z,1005.92
2018-01-07T01:34:11.009Z,1005.95
2018-01-07T01:35:11.024Z,1005.95
2018-01-07T01:36:11.037Z,1005.99
2018-01-07T01:37:11.049Z,1005.97
2018-01-07T01:38:11.060Z,1006
2018-01-07T01:39:11.074Z,1006.02
2018-01-07T01:40:11.090Z,1006.04
2018-01-07T01:41:11.103Z,1006.05
2018-01-07T01:42:11.114Z,1006.01
2018-01-07T01:43:11.128Z,1006.03
2018-01-07T01:44:11.140Z,1006.04
2018-01-07T01:45:11.153Z,1006.04
2018-01-07T01:46:11.166Z,1006.02
2018-01-07T01:47:11.179Z,1006.06
2018-01-07T01:48:11.193Z,1006.06
2018-01-07T01:49:11.205Z,1006.06
2018-01-07T01:50:11.228Z,1006.11
2018-01-07T01:51:11.231Z,1006.11
2018-01-07T01:52:11.245Z,1006.17
2018-01-07T01:53:11.259Z,1006.15
2018-01-07T01:54:11.271Z,1006.17
2018-01-07T01:55:11.284Z,1006.14
2018-01-07T01:56:11.297Z,1006.23
2018-01-07T01:57:11.309Z,1006.24
2018-01-07T01:58:11.322Z,1006.26
2018-01-07T01:59:11.336Z,1006.24
2018-01-07T02:00:11.348Z,1006.35
2018-01-07T02:01:11.361Z,1006.33
2018-01-07T02:02:11.374Z,1006.36
2018-01-07T02:03:11.386Z,1006.42
2018-01-07T02:04:11.401Z,1006.45
2018-01-07T02:05:11.411Z,1006.53
2018-01-07T02:06:11.428Z,1006.5
2018-01-07T02:07:11.438Z,1006.49
2018-01-07T02:08:11.451Z,1006.56
2018-01-07T02:09:11.465Z,1006.52
2018-01-07T02:10:11.480Z,1006.59
2018-01-07T02:11:11.491Z,1006.57
2018-01-07T02:12:11.508Z,1006.61
2018-01-07T02:13:11.516Z,1006.6
2018-01-07T02:14:11.528Z,1006.62
2018-01-07T02:15:11.541Z,1006.63
2018-01-07T02:16:11.554Z,1006.66
2018-01-07T02:17:11.568Z,1006.7
2018-01-07T02:18:11.581Z,1006.71
2018-01-07T02:19:11.593Z,1006.75
2018-01-07T02:20:11.608Z,1006.74
2018-01-07T02:21:11.627Z,1006.78
2018-01-07T02:22:11.631Z,1006.83
2018-01-07T02:23:11.645Z,1006.81
2018-01-07T02:24:11.658Z,1006.86
2018-01-07T02:25:11.670Z,1006.86
2018-01-07T02:26:11.683Z,1006.89
2018-01-07T02:27:11.697Z,1006.9
2018-01-07T02:28:11.713Z,1006.9
2018-01-07T02:29:11.721Z,1006.94
2018-01-07T02:30:11.735Z,1006.94
2018-01-07T02:31:11.749Z,1006.97
2018-01-07T02:32:11.764Z,1006.97
2018-01-07T02:33:11.773Z,1007.02
2018-01-07T02:34:11.785Z,1007.03
2018-01-07T02:35:11.799Z,1007.02
2018-01-07T02:36:11.810Z,1007.06
2018-01-07T02:37:11.824Z,1007.11
2018-01-07T02:38:11.849Z,1007.11
2018-01-07T02:39:11.850Z,1007.12
2018-01-07T02:40:11.866Z,1007.14
2018-01-07T02:41:11.876Z,1007.16
2018-01-07T02:42:11.889Z,1007.13
2018-01-07T02:43:11.901Z,1007.09
2018-01-07T02:44:11.914Z,1007.11
2018-01-07T02:45:11.927Z,1007.13
2018-01-07T02:46:11.939Z,1007.14
2018-01-07T02:47:11.951Z,1007.18
2018-01-07T02:48:11.971Z,1007.21
2018-01-07T02:49:11.981Z,1007.19
2018-01-07T02:50:11.994Z,1007.24
2018-01-07T02:51:12.003Z,1007.23
2018-01-07T02:52:12.016Z,1007.28
2018-01-07T02:53:12.030Z,1007.26
2018-01-07T02:54:12.043Z,1007.31
2018-01-07T02:55:12.055Z,1007.29
2018-01-07T02:56:12.068Z,1007.26
2018-01-07T02:57:12.083Z,1007.3
2018-01-07T02:58:12.094Z,1007.34
2018-01-07T02:59:12.105Z,1007.3
2018-01-07T03:00:12.120Z,1007.32
2018-01-07T03:01:12.132Z,1007.3
2018-01-07T03:02:12.146Z,1007.35
2018-01-07T03:03:12.211Z,1007.3
2018-01-07T03:04:12.178Z,1007.33
2018-01-07T03:05:12.182Z,1007.37
2018-01-07T03:06:12.195Z,1007.36
2018-01-07T03:07:12.208Z,1007.4
2018-01-07T03:08:12.270Z,1007.38
2018-01-07T03:09:12.233Z,1007.37
2018-01-07T03:10:12.246Z,1007.34
2018-01-07T03:11:12.259Z,1007.34
2018-01-07T03:12:12.272Z,1007.33
2018-01-07T03:13:12.289Z,1007.36
2018-01-07T03:14:12.297Z,1007.42
2018-01-07T03:15:12.309Z,1007.38
2018-01-07T03:16:12.322Z,1007.44
2018-01-07T03:17:12.336Z,1007.46
2018-01-07T03:18:12.349Z,1007.53
2018-01-07T03:19:12.363Z,1007.5
2018-01-07T03:20:12.373Z,1007.52
2018-01-07T03:21:12.387Z,1007.54
2018-01-07T03:22:12.399Z,1007.54
2018-01-07T03:23:12.413Z,1007.52
2018-01-07T03:24:12.431Z,1007.52
2018-01-07T03:25:12.438Z,1007.53
2018-01-07T03:26:12.457Z,1007.58
2018-01-07T03:27:12.463Z,1007.6
2018-01-07T03:28:12.475Z,1007.58
2018-01-07T03:29:12.489Z,1007.67
2018-01-07T03:30:12.516Z,1007.6
2018-01-07T03:31:12.515Z,1007.66
2018-01-07T03:32:12.527Z,1007.68
2018-01-07T03:33:12.540Z,1007.72
2018-01-07T03:34:12.552Z,1007.73
2018-01-07T03:35:12.564Z,1007.74
2018-01-07T03:36:12.577Z,1007.77
2018-01-07T03:37:12.590Z,1007.76
2018-01-07T03:38:12.602Z,1007.76
2018-01-07T03:39:12.617Z,1007.81
2018-01-07T03:40:12.630Z,1007.74
2018-01-07T03:41:12.640Z,1007.7
2018-01-07T03:42:12.654Z,1007.78
2018-01-07T03:43:12.666Z,1007.8
2018-01-07T03:44:12.679Z,1007.82
2018-01-07T03:45:12.693Z,1007.86
2018-01-07T03:46:12.703Z,1007.87
2018-01-07T03:47:12.716Z,1007.9
2018-01-07T03:48:12.729Z,1007.91
2018-01-07T03:49:12.741Z,1007.99
2018-01-07T03:50:12.754Z,1008
2018-01-07T03:51:12.782Z,1007.96
2018-01-07T03:52:12.780Z,1008.06
2018-01-07T03:53:12.795Z,1008.04
2018-01-07T03:54:12.805Z,1008.06
2018-01-07T03:55:12.818Z,1008.07
2018-01-07T03:56:12.830Z,1008.05
2018-01-07T03:57:12.842Z,1008.07
2018-01-07T03:58:12.855Z,1008.05
2018-01-07T03:59:12.869Z,1008.08
2018-01-07T04:00:12.880Z,1008.11
2018-01-07T04:01:12.896Z,1008.09
2018-01-07T04:02:12.905Z,1008.06
2018-01-07T04:03:12.919Z,1008.12
2018-01-07T04:04:12.930Z,1008.1
2018-01-07T04:05:12.943Z,1008.13
2018-01-07T04:06:12.956Z,1008.12
2018-01-07T04:07:12.969Z,1008.18
2018-01-07T04:08:12.983Z,1008.2
2018-01-07T04:09:12.994Z,1008.17
2018-01-07T04:10:13.007Z,1008.19
2018-01-07T04:11:13.019Z,1008.22
2018-01-07T04:12:13.032Z,1008.18
2018-01-07T04:13:13.044Z,1008.23
2018-01-07T04:14:13.060Z,1008.23
2018-01-07T04:15:13.069Z,1008.26
2018-01-07T04:16:13.082Z,1008.29
2018-01-07T04:17:13.095Z,1008.28
2018-01-07T04:18:13.108Z,1008.29
2018-01-07T04:19:13.123Z,1008.28
2018-01-07T04:20:13.132Z,1008.3
2018-01-07T04:21:13.146Z,1008.28
2018-01-07T04:22:13.158Z,1008.33
2018-01-07T04:23:13.173Z,1008.39
2018-01-07T04:24:13.182Z,1008.4
2018-01-07T04:25:13.195Z,1008.41
2018-01-07T04:26:13.207Z,1008.44
2018-01-07T04:27:13.219Z,1008.47
2018-01-07T04:28:13.233Z,1008.45
2018-01-07T04:29:13.248Z,1008.5
2018-01-07T04:30:13.256Z,1008.51
2018-01-07T04:31:13.271Z,1008.53
2018-01-07T04:32:13.283Z,1008.54
2018-01-07T04:33:13.295Z,1008.56
2018-01-07T04:34:13.308Z,1008.6
2018-01-07T04:35:13.321Z,1008.62
2018-01-07T04:36:13.334Z,1008.64
2018-01-07T04:37:13.345Z,1008.67
2018-01-07T04:38:13.360Z,1008.7
2018-01-07T04:39:13.372Z,1008.7
2018-01-07T04:40:13.383Z,1008.6
2018-01-07T04:41:13.396Z,1008.69
2018-01-07T04:42:13.407Z,1008.73
2018-01-07T04:43:13.421Z,1008.76
2018-01-07T04:44:13.432Z,1008.73
2018-01-07T04:45:13.447Z,1008.78
2018-01-07T04:46:13.459Z,1008.74
2018-01-07T04:47:13.471Z,1008.77
2018-01-07T04:48:13.483Z,1008.79
2018-01-07T04:49:13.495Z,1008.81
2018-01-07T04:50:13.524Z,1008.78
2018-01-07T04:51:13.521Z,1008.83
2018-01-07T04:52:13.534Z,1008.91
2018-01-07T04:53:13.548Z,1008.93
2018-01-07T04:54:13.600Z,1008.92
2018-01-07T04:55:13.570Z,1008.97
2018-01-07T04:56:13.583Z,1008.97
2018-01-07T04:57:13.599Z,1009.02
2018-01-07T04:58:13.609Z,1009.02
2018-01-07T04:59:13.621Z,1009.08
2018-01-07T05:00:13.633Z,1009.1
2018-01-07T05:01:13.648Z,1009.12
2018-01-07T05:02:13.719Z,1009.12
2018-01-07T05:03:13.671Z,1009.14
2018-01-07T05:04:13.683Z,1009.1
2018-01-07T05:05:13.696Z,1009.15
2018-01-07T05:06:13.709Z,1009.22
2018-01-07T05:07:13.721Z,1009.17
2018-01-07T05:08:13.733Z,1009.21
2018-01-07T05:09:13.746Z,1009.21
2018-01-07T05:10:13.758Z,1009.28
2018-01-07T05:11:13.770Z,1009.29
2018-01-07T05:12:13.859Z,1009.32
2018-01-07T05:13:13.938Z,1009.36
2018-01-07T05:14:13.810Z,1009.36
2018-01-07T05:15:13.819Z,1009.35
2018-01-07T05:16:13.835Z,1009.39
2018-01-07T05:17:13.843Z,1009.4
2018-01-07T05:18:13.856Z,1009.44
2018-01-07T05:19:13.869Z,1009.48
2018-01-07T05:20:13.882Z,1009.49
2018-01-07T05:21:13.893Z,1009.44
2018-01-07T05:22:13.906Z,1009.5
2018-01-07T05:23:13.926Z,1009.51
2018-01-07T05:24:13.930Z,1009.49
2018-01-07T05:25:13.943Z,1009.52
2018-01-07T05:26:13.955Z,1009.52
2018-01-07T05:27:13.969Z,1009.57
2018-01-07T05:28:13.979Z,1009.59
2018-01-07T05:29:13.992Z,1009.57
2018-01-07T05:30:14.006Z,1009.58
2018-01-07T05:31:14.017Z,1009.59
2018-01-07T05:32:14.029Z,1009.6
2018-01-07T05:33:14.042Z,1009.54
2018-01-07T05:34:14.053Z,1009.55
2018-01-07T05:35:14.065Z,1009.57
2018-01-07T05:36:14.082Z,1009.56
2018-01-07T05:37:14.091Z,1009.51
2018-01-07T05:38:14.105Z,1009.57
2018-01-07T05:39:14.115Z,1009.6
2018-01-07T05:40:14.128Z,1009.62
2018-01-07T05:41:14.140Z,1009.61
2018-01-07T05:42:14.153Z,1009.66
2018-01-07T05:43:14.164Z,1009.64
2018-01-07T05:44:14.176Z,1009.68
2018-01-07T05:45:14.191Z,1009.7
2018-01-07T05:46:14.203Z,1009.73
2018-01-07T05:47:14.213Z,1009.7
2018-01-07T05:48:14.226Z,1009.73
2018-01-07T05:49:14.239Z,1009.76
2018-01-07T05:50:14.250Z,1009.77
2018-01-07T05:51:14.262Z,1009.77
2018-01-07T05:52:14.277Z,1009.78
2018-01-07T05:53:14.287Z,1009.84
2018-01-07T05:54:14.299Z,1009.82
2018-01-07T05:55:14.313Z,1009.88
2018-01-07T05:56:14.323Z,1009.87
2018-01-07T05:57:14.335Z,1009.9
2018-01-07T05:58:14.349Z,1009.99
2018-01-07T05:59:14.359Z,1009.97
2018-01-07T06:00:14.372Z,1009.98
2018-01-07T06:01:14.387Z,1010.01
2018-01-07T06:02:14.396Z,1010.03
2018-01-07T06:03:14.413Z,1010.04
2018-01-07T06:04:14.490Z,1010.07
2018-01-07T06:05:14.433Z,1010.08
2018-01-07T06:06:14.446Z,1010.12
2018-01-07T06:07:14.458Z,1010.17
2018-01-07T06:08:14.469Z,1010.22
2018-01-07T06:09:14.483Z,1010.24
2018-01-07T06:10:14.493Z,1010.24
2018-01-07T06:11:14.506Z,1010.26
2018-01-07T06:12:14.518Z,1010.31
2018-01-07T06:13:14.530Z,1010.29
2018-01-07T06:14:14.542Z,1010.35
2018-01-07T06:15:14.555Z,1010.37
2018-01-07T06:16:14.567Z,1010.44
2018-01-07T06:17:14.579Z,1010.47
2018-01-07T06:18:14.601Z,1010.49
2018-01-07T06:19:14.606Z,1010.55
2018-01-07T06:20:14.616Z,1010.55
2018-01-07T06:21:14.627Z,1010.55
2018-01-07T06:22:14.644Z,1010.6
2018-01-07T06:23:14.651Z,1010.54
2018-01-07T06:24:14.713Z,1010.58
2018-01-07T06:25:14.676Z,1010.5
2018-01-07T06:26:14.688Z,1010.56
2018-01-07T06:27:14.734Z,1010.61
2018-01-07T06:28:14.713Z,1010.58
2018-01-07T06:29:14.775Z,1010.6
2018-01-07T06:30:14.736Z,1010.59
2018-01-07T06:31:14.749Z,1010.63
2018-01-07T06:32:14.761Z,1010.6
2018-01-07T06:33:14.775Z,1010.61
2018-01-07T06:34:14.785Z,1010.66
2018-01-07T06:35:14.798Z,1010.64
2018-01-07T06:36:14.810Z,1010.65
2018-01-07T06:37:14.821Z,1010.71
2018-01-07T06:38:14.834Z,1010.77
2018-01-07T06:39:14.845Z,1010.77
2018-01-07T06:40:14.857Z,1010.83
2018-01-07T06:41:14.869Z,1010.93
2018-01-07T06:42:14.880Z,1010.97
2018-01-07T06:43:14.893Z,1011.02
2018-01-07T06:44:14.906Z,1011.1
2018-01-07T06:45:14.917Z,1011.07
2018-01-07T06:46:14.929Z,1011.06
2018-01-07T06:47:14.943Z,1011.1
2018-01-07T06:48:14.953Z,1011.11
2018-01-07T06:49:14.965Z,1011.14
2018-01-07T06:50:14.978Z,1011.18
2018-01-07T06:51:14.991Z,1011.21
2018-01-07T06:52:15.000Z,1011.17
2018-01-07T06:53:15.014Z,1011.21
2018-01-07T06:54:15.027Z,1011.22
2018-01-07T06:55:15.039Z,1011.23
2018-01-07T06:56:15.049Z,1011.29
2018-01-07T06:57:15.062Z,1011.29
2018-01-07T06:58:15.074Z,1011.3
2018-01-07T06:59:15.087Z,1011.39
2018-01-07T07:00:15.098Z,1011.38
2018-01-07T07:01:15.114Z,1011.37
2018-01-07T07:02:15.122Z,1011.43
2018-01-07T07:03:15.133Z,1011.48
2018-01-07T07:04:15.147Z,1011.49
2018-01-07T07:05:15.158Z,1011.55
2018-01-07T07:06:15.169Z,1011.52
2018-01-07T07:07:15.181Z,1011.54
2018-01-07T07:08:15.193Z,1011.52
2018-01-07T07:09:15.207Z,1011.52
2018-01-07T07:10:15.217Z,1011.54
2018-01-07T07:11:15.229Z,1011.58
2018-01-07T07:12:15.242Z,1011.59
2018-01-07T07:13:15.254Z,1011.64
2018-01-07T07:14:15.265Z,1011.71
2018-01-07T07:15:15.277Z,1011.72
2018-01-07T07:16:15.290Z,1011.77
2018-01-07T07:17:15.304Z,1011.77
2018-01-07T07:18:15.313Z,1011.83
2018-01-07T07:19:15.328Z,1011.82
2018-01-07T07:20:15.337Z,1011.83
2018-01-07T07:21:15.348Z,1011.81
2018-01-07T07:22:15.361Z,1011.89
2018-01-07T07:23:15.374Z,1011.89
2018-01-07T07:24:15.385Z,1011.92
2018-01-07T07:25:15.400Z,1011.94
2018-01-07T07:26:15.409Z,1011.95
2018-01-07T07:27:15.420Z,1011.96
2018-01-07T07:28:15.433Z,1012
2018-01-07T07:29:15.444Z,1012.02
2018-01-07T07:30:15.455Z,1012.05
2018-01-07T07:31:15.470Z,1012.02
2018-01-07T07:32:15.482Z,1012.03
2018-01-07T07:33:15.494Z,1012.07
2018-01-07T07:34:15.506Z,1012.07
2018-01-07T07:35:15.517Z,1012.12
2018-01-07T07:36:15.528Z,1012.16
2018-01-07T07:37:15.540Z,1012.24
2018-01-07T07:38:15.551Z,1012.25
2018-01-07T07:39:15.563Z,1012.29
2018-01-07T07:40:15.575Z,1012.3
2018-01-07T07:41:15.587Z,1012.34
2018-01-07T07:42:15.599Z,1012.4
2018-01-07T07:43:15.625Z,1012.4
2018-01-07T07:44:15.623Z,1012.43
2018-01-07T07:45:15.634Z,1012.47
2018-01-07T07:46:15.646Z,1012.45
2018-01-07T07:47:15.656Z,1012.47
2018-01-07T07:48:15.670Z,1012.52
2018-01-07T07:49:15.681Z,1012.55
2018-01-07T07:50:15.693Z,1012.54
2018-01-07T07:51:15.706Z,1012.54
2018-01-07T07:52:15.719Z,1012.58
2018-01-07T07:53:15.729Z,1012.61
2018-01-07T07:54:15.741Z,1012.66
2018-01-07T07:55:15.753Z,1012.64
2018-01-07T07:56:15.766Z,1012.66
2018-01-07T07:57:15.777Z,1012.62
2018-01-07T07:58:15.787Z,1012.64
2018-01-07T07:59:15.802Z,1012.64
2018-01-07T08:00:15.811Z,1012.64
2018-01-07T08:01:15.823Z,1012.7
2018-01-07T08:02:15.870Z,1012.72
2018-01-07T08:03:15.851Z,1012.74
2018-01-07T08:04:15.860Z,1012.73
2018-01-07T08:05:15.871Z,1012.69
2018-01-07T08:06:15.884Z,1012.74
2018-01-07T08:07:15.896Z,1012.73
2018-01-07T08:08:15.907Z,1012.7
2018-01-07T08:09:15.922Z,1012.71
2018-01-07T08:10:15.931Z,1012.69
2018-01-07T08:11:15.944Z,1012.7
2018-01-07T08:12:15.954Z,1012.7
2018-01-07T08:13:15.966Z,1012.72
2018-01-07T08:14:15.978Z,1012.72
2018-01-07T08:15:15.990Z,1012.77
2018-01-07T08:16:16.002Z,1012.79
2018-01-07T08:17:16.014Z,1012.78
2018-01-07T08:18:16.029Z,1012.83
2018-01-07T08:19:16.040Z,1012.83
2018-01-07T08:20:16.049Z,1012.79
2018-01-07T08:21:16.060Z,1012.8
2018-01-07T08:22:16.073Z,1012.84
2018-01-07T08:23:16.088Z,1012.83
2018-01-07T08:24:16.096Z,1012.83
2018-01-07T08:25:16.109Z,1012.84
2018-01-07T08:26:16.123Z,1012.78
2018-01-07T08:27:16.131Z,1012.84
2018-01-07T08:28:16.142Z,1012.88
2018-01-07T08:29:16.156Z,1012.92
2018-01-07T08:30:16.172Z,1012.9
2018-01-07T08:31:16.179Z,1012.93
2018-01-07T08:32:16.193Z,1012.93
2018-01-07T08:33:16.203Z,1012.94
2018-01-07T08:34:16.213Z,1012.97
2018-01-07T08:35:16.225Z,1013.01
2018-01-07T08:36:16.238Z,1013
2018-01-07T08:37:16.250Z,1013.03
2018-01-07T08:38:16.267Z,1013.05
2018-01-07T08:39:16.273Z,1013.04
2018-01-07T08:40:16.285Z,1013.07
2018-01-07T08:41:16.297Z,1013.05
2018-01-07T08:42:16.313Z,1013.09
2018-01-07T08:43:16.321Z,1013.13
2018-01-07T08:44:16.332Z,1013.14
2018-01-07T08:45:16.344Z,1013.13
2018-01-07T08:46:16.358Z,1013.17
2018-01-07T08:47:16.369Z,1013.24
2018-01-07T08:48:16.380Z,1013.23
2018-01-07T08:49:16.390Z,1013.33
2018-01-07T08:50:16.403Z,1013.34
2018-01-07T08:51:16.417Z,1013.35
2018-01-07T08:52:16.429Z,1013.4
2018-01-07T08:53:16.439Z,1013.44
2018-01-07T08:54:16.451Z,1013.45
2018-01-07T08:55:16.462Z,1013.45
2018-01-07T08:56:16.473Z,1013.48
2018-01-07T08:57:16.485Z,1013.56
2018-01-07T08:58:16.498Z,1013.54
2018-01-07T08:59:16.543Z,1013.56
2018-01-07T09:00:16.521Z,1013.57
2018-01-07T09:01:16.538Z,1013.62
2018-01-07T09:02:16.545Z,1013.63
2018-01-07T09:03:16.557Z,1013.57
2018-01-07T09:04:16.570Z,1013.61
2018-01-07T09:05:16.581Z,1013.63
2018-01-07T09:06:16.593Z,1013.67
2018-01-07T09:07:16.604Z,1013.69
2018-01-07T09:08:16.622Z,1013.72
2018-01-07T09:09:16.628Z,1013.71
2018-01-07T09:10:16.640Z,1013.76
2018-01-07T09:11:16.650Z,1013.73
2018-01-07T09:12:16.662Z,1013.73
2018-01-07T09:13:16.674Z,1013.74
2018-01-07T09:14:16.687Z,1013.78
2018-01-07T09:15:16.697Z,1013.71
2018-01-07T09:16:16.710Z,1013.74
2018-01-07T09:17:16.722Z,1013.73
2018-01-07T09:18:16.734Z,1013.72
2018-01-07T09:19:16.745Z,1013.81
2018-01-07T09:20:16.758Z,1013.79
2018-01-07T09:21:16.769Z,1013.77
2018-01-07T09:22:16.781Z,1013.78
2018-01-07T09:23:16.794Z,1013.8
2018-01-07T09:24:16.805Z,1013.78
2018-01-07T09:25:16.817Z,1013.82
2018-01-07T09:26:16.828Z,1013.84
2018-01-07T09:27:16.840Z,1013.82
2018-01-07T09:28:16.852Z,1013.78
2018-01-07T09:29:16.863Z,1013.83
2018-01-07T09:30:16.875Z,1013.77
2018-01-07T09:31:16.890Z,1013.84
2018-01-07T09:32:16.901Z,1013.82
2018-01-07T09:33:16.912Z,1013.86
2018-01-07T09:34:16.921Z,1013.92
2018-01-07T09:35:16.934Z,1013.9
2018-01-07T09:36:16.946Z,1013.96
2018-01-07T09:37:16.959Z,1013.98
2018-01-07T09:38:16.975Z,1013.99
2018-01-07T09:39:16.985Z,1013.97
2018-01-07T09:40:16.994Z,1014.01
2018-01-07T09:41:17.006Z,1014.02
2018-01-07T09:42:17.018Z,1014.04
2018-01-07T09:43:17.030Z,1014.05
2018-01-07T09:44:17.041Z,1014.04
2018-01-07T09:45:17.054Z,1014.06
2018-01-07T09:46:17.066Z,1014.08
2018-01-07T09:47:17.077Z,1014.09
2018-01-07T09:48:17.089Z,1014.14
2018-01-07T09:49:17.104Z,1014.17
2018-01-07T09:50:17.115Z,1014.14
2018-01-07T09:51:17.124Z,1014.18
2018-01-07T09:52:17.139Z,1014.19
2018-01-07T09:53:17.148Z,1014.15
2018-01-07T09:54:17.161Z,1014.19
2018-01-07T09:55:17.174Z,1014.19
2018-01-07T09:56:17.184Z,1014.21
2018-01-07T09:57:17.196Z,1014.25
2018-01-07T09:58:17.207Z,1014.29
2018-01-07T09:59:17.222Z,1014.33
2018-01-07T10:00:17.232Z,1014.37
2018-01-07T10:01:17.244Z,1014.36
2018-01-07T10:02:17.255Z,1014.41
2018-01-07T10:03:17.267Z,1014.46
2018-01-07T10:04:17.279Z,1014.46
2018-01-07T10:05:17.291Z,1014.43
2018-01-07T10:06:17.306Z,1014.45
2018-01-07T10:07:17.314Z,1014.5
2018-01-07T10:08:17.329Z,1014.53
2018-01-07T10:09:17.376Z,1014.6
2018-01-07T10:10:17.363Z,1014.61
2018-01-07T10:11:17.362Z,1014.58
2018-01-07T10:12:17.374Z,1014.66
2018-01-07T10:13:17.385Z,1014.65
2018-01-07T10:14:17.397Z,1014.66
2018-01-07T10:15:17.410Z,1014.65
2018-01-07T10:16:17.422Z,1014.6
2018-01-07T10:17:17.432Z,1014.61
2018-01-07T10:18:17.444Z,1014.6
2018-01-07T10:19:17.456Z,1014.58
2018-01-07T10:20:17.468Z,1014.62
2018-01-07T10:21:17.480Z,1014.6
2018-01-07T10:22:17.493Z,1014.62
2018-01-07T10:23:17.504Z,1014.62
2018-01-07T10:24:17.516Z,1014.64
2018-01-07T10:25:17.526Z,1014.68
2018-01-07T10:26:17.701Z,1014.66
2018-01-07T10:27:17.848Z,1014.61
2018-01-07T10:28:17.786Z,1014.6
2018-01-07T10:29:18.017Z,1014.61
2018-01-07T10:30:17.588Z,1014.58
2018-01-07T10:31:17.632Z,1014.64
2018-01-07T10:32:17.610Z,1014.61
2018-01-07T10:33:17.660Z,1014.59
2018-01-07T10:34:17.704Z,1014.54
2018-01-07T10:35:17.697Z,1014.53
2018-01-07T10:36:17.664Z,1014.6
2018-01-07T10:37:18.465Z,1014.56
2018-01-07T10:38:17.682Z,1014.56
2018-01-07T10:39:17.765Z,1014.56
2018-01-07T10:40:18.269Z,1014.59
2018-01-07T10:41:18.808Z,1014.53
2018-01-07T10:42:17.968Z,1014.5
2018-01-07T10:43:17.779Z,1014.54
2018-01-07T10:44:27.145Z,1014.48
2018-01-07T10:45:17.896Z,1014.47
2018-01-07T10:46:21.695Z,1014.44
2018-01-07T10:47:17.934Z,1014.46
2018-01-07T10:48:17.882Z,1014.44
2018-01-07T10:49:22.252Z,1014.46
2018-01-07T10:50:20.956Z,1014.46
2018-01-07T10:51:19.892Z,1014.47
2018-01-07T10:52:17.964Z,1014.46
2018-01-07T10:53:22.936Z,1014.45
2018-01-07T10:54:19.577Z,1014.46
2018-01-07T10:55:18.035Z,1014.55
2018-01-07T10:56:20.573Z,1014.51
2018-01-07T10:57:18.781Z,1014.51
2018-01-07T10:58:32.897Z,1014.52
2018-01-07T10:59:24.136Z,1014.52
2018-01-07T11:00:18.899Z,1014.55
2018-01-07T11:01:19.511Z,1014.53
2018-01-07T11:02:27.170Z,1014.59
2018-01-07T11:03:18.027Z,1014.59
2018-01-07T11:04:19.440Z,1014.63
2018-01-07T11:05:22.838Z,1014.57
2018-01-07T11:06:20.521Z,1014.6
2018-01-07T11:07:18.783Z,1014.63
2018-01-07T11:08:18.714Z,1014.62
2018-01-07T11:09:24.797Z,1014.64
2018-01-07T11:10:23.361Z,1014.63
2018-01-07T11:11:18.506Z,1014.65
2018-01-07T11:12:19.057Z,1014.65
2018-01-07T11:13:18.877Z,1014.66
2018-01-07T11:14:21.127Z,1014.73
2018-01-07T11:15:18.298Z,1014.72
2018-01-07T11:16:23.145Z,1014.79
2018-01-07T11:17:18.500Z,1014.75
2018-01-07T11:18:19.546Z,1014.73
2018-01-07T11:19:18.237Z,1014.73
2018-01-07T11:20:19.971Z,1014.76
2018-01-07T11:21:18.252Z,1014.8
2018-01-07T11:22:18.277Z,1014.75
2018-01-07T11:23:18.821Z,1014.73
2018-01-07T11:24:23.120Z,1014.75
2018-01-07T11:25:22.399Z,1014.78
2018-01-07T11:26:20.480Z,1014.8
2018-01-07T11:27:26.547Z,1014.79
2018-01-07T11:28:20.273Z,1014.78
2018-01-07T11:29:23.301Z,1014.77
2018-01-07T11:30:18.507Z,1014.8
2018-01-07T11:31:24.899Z,1014.83
2018-01-07T11:32:24.524Z,1014.86
2018-01-07T11:33:23.694Z,1014.85
2018-01-07T11:34:22.692Z,1014.84
2018-01-07T11:35:19.842Z,1014.8
2018-01-07T11:36:19.852Z,1014.84
2018-01-07T11:37:21.273Z,1014.77
2018-01-07T11:38:19.921Z,1014.79
2018-01-07T11:39:21.192Z,1014.8
2018-01-07T11:40:21.365Z,1014.79
2018-01-07T11:41:18.449Z,1014.82
2018-01-07T11:42:18.458Z,1014.79
2018-01-07T11:43:18.471Z,1014.84
2018-01-07T11:44:18.481Z,1014.82
2018-01-07T11:45:18.492Z,1014.81
2018-01-07T11:46:18.513Z,1014.8
2018-01-07T11:47:18.525Z,1014.81
2018-01-07T11:48:18.530Z,1014.77
2018-01-07T11:49:18.544Z,1014.75
2018-01-07T11:50:18.555Z,1014.77
2018-01-07T11:51:18.616Z,1014.77
2018-01-07T11:52:18.579Z,1014.71
2018-01-07T11:53:18.592Z,1014.71
2018-01-07T11:54:18.602Z,1014.73
2018-01-07T11:55:18.613Z,1014.72
2018-01-07T11:56:18.626Z,1014.71
2018-01-07T11:57:18.638Z,1014.68
2018-01-07T11:58:18.650Z,1014.71
2018-01-07T11:59:18.661Z,1014.72
2018-01-07T12:00:18.674Z,1014.75
2018-01-07T12:01:18.686Z,1014.71
2018-01-07T12:02:18.699Z,1014.8
2018-01-07T12:03:18.710Z,1014.73
2018-01-07T12:04:18.721Z,1014.77
2018-01-07T12:05:18.734Z,1014.79
2018-01-07T12:06:18.749Z,1014.79
2018-01-07T12:07:18.758Z,1014.85
2018-01-07T12:08:18.771Z,1014.83